sensor_id;sensor_type;location;lat;lon;timestamp;pressure;altitude;pressure_sealevel;temperature;humidity
2401;BME280;1211;43.200;27.914;2023-02-24T00:00:57;101702.03;;;8.29;nan
2401;BME280;1211;43.200;27.914;2023-02-24T00:03:32;101624.41;;;7.71;nan
2401;BME280;1211;43.200;27.914;2023-02-24T00:05:59;101473.03;;;6.78;nan
2401;BME280;1211;43.200;27.914;2023-02-24T00:08:27;101650.25;;;7.94;nan
2401;BME280;1211;43.200;27.914;2023-02-24T00:10:54;101606.34;;;7.65;nan
2401;BME280;1211;43.200;27.914;2023-02-24T00:13:21;101675.28;;;8.16;nan
2401;BME280;1211;43.200;27.914;2023-02-24T00:15:57;101700.84;;;8.46;nan
2401;BME280;1211;43.200;27.914;2023-02-24T00:18:24;101714.13;;;8.34;nan
2401;BME280;1211;43.200;27.914;2023-02-24T00:20:53;101698.78;;;8.33;nan
2401;BME280;1211;43.200;27.914;2023-02-24T00:23:22;101734.03;;;8.49;nan
2401;BME280;1211;43.200;27.914;2023-02-24T00:25:49;101639.69;;;8.11;nan
2401;BME280;1211;43.200;27.914;2023-02-24T00:28:23;101674.91;;;8.33;nan
2401;BME280;1211;43.200;27.914;2023-02-24T00:30:50;101684.94;;;8.43;nan
2401;BME280;1211;43.200;27.914;2023-02-24T00:33:16;101674.28;;;8.36;nan
2401;BME280;1211;43.200;27.914;2023-02-24T00:35:46;101549.00;;;7.69;nan
2401;BME280;1211;43.200;27.914;2023-02-24T00:38:15;101514.13;;;7.45;nan
2401;BME280;1211;43.200;27.914;2023-02-24T00:40:41;101534.63;;;7.53;nan
2401;BME280;1211;43.200;27.914;2023-02-24T00:43:09;101576.03;;;7.80;nan
2401;BME280;1211;43.200;27.914;2023-02-24T00:45:36;101504.91;;;7.36;nan
2401;BME280;1211;43.200;27.914;2023-02-24T00:48:03;101522.25;;;7.56;nan
2401;BME280;1211;43.200;27.914;2023-02-24T00:50:30;101553.91;;;7.72;nan
2401;BME280;1211;43.200;27.914;2023-02-24T00:52:57;101485.22;;;7.29;nan
2401;BME280;1211;43.200;27.914;2023-02-24T00:55:25;101352.19;;;6.60;nan
2401;BME280;1211;43.200;27.914;2023-02-24T00:58:00;101273.78;;;6.07;nan
2401;BME280;1211;43.200;27.914;2023-02-24T01:00:27;101657.09;;;8.25;nan
2401;BME280;1211;43.200;27.914;2023-02-24T01:02:54;101501.25;;;7.46;nan
2401;BME280;1211;43.200;27.914;2023-02-24T01:05:23;101530.34;;;7.71;nan
2401;BME280;1211;43.200;27.914;2023-02-24T01:07:52;101626.94;;;8.20;nan
2401;BME280;1211;43.200;27.914;2023-02-24T01:10:19;101602.97;;;8.02;nan
2401;BME280;1211;43.200;27.914;2023-02-24T01:12:49;101569.75;;;7.80;nan
2401;BME280;1211;43.200;27.914;2023-02-24T01:15:15;101596.94;;;8.05;nan
2401;BME280;1211;43.200;27.914;2023-02-24T01:17:41;101534.84;;;7.57;nan
2401;BME280;1211;43.200;27.914;2023-02-24T01:20:09;101569.78;;;8.04;nan
2401;BME280;1211;43.200;27.914;2023-02-24T01:22:40;101165.69;;;5.42;nan
2401;BME280;1211;43.200;27.914;2023-02-24T01:25:07;101097.47;;;4.92;nan
2401;BME280;1211;43.200;27.914;2023-02-24T01:27:34;101441.94;;;7.26;nan
2401;BME280;1211;43.200;27.914;2023-02-24T01:30:03;100997.34;;;4.39;nan
2401;BME280;1211;43.200;27.914;2023-02-24T01:32:30;101488.91;;;7.49;nan
2401;BME280;1211;43.200;27.914;2023-02-24T01:34:57;100989.44;;;4.42;nan
2401;BME280;1211;43.200;27.914;2023-02-24T01:37:24;101055.97;;;4.90;nan
2401;BME280;1211;43.200;27.914;2023-02-24T01:39:51;100998.88;;;4.55;nan
2401;BME280;1211;43.200;27.914;2023-02-24T01:42:19;101073.75;;;4.88;nan
2401;BME280;1211;43.200;27.914;2023-02-24T01:45:05;100693.81;;;2.77;nan
2401;BME280;1211;43.200;27.914;2023-02-24T01:47:36;100923.63;;;4.05;nan
2401;BME280;1211;43.200;27.914;2023-02-24T01:50:04;101088.22;;;4.88;nan
2401;BME280;1211;43.200;27.914;2023-02-24T01:52:31;101068.34;;;4.78;nan
2401;BME280;1211;43.200;27.914;2023-02-24T01:55:00;101202.38;;;5.74;nan
2401;BME280;1211;43.200;27.914;2023-02-24T01:57:30;101343.78;;;6.47;nan
2401;BME280;1211;43.200;27.914;2023-02-24T01:59:59;101109.84;;;5.24;nan
2401;BME280;1211;43.200;27.914;2023-02-24T02:02:51;100955.94;;;4.27;nan
2401;BME280;1211;43.200;27.914;2023-02-24T02:05:18;101282.88;;;6.36;nan
2401;BME280;1211;43.200;27.914;2023-02-24T02:07:45;101368.81;;;6.98;nan
2401;BME280;1211;43.200;27.914;2023-02-24T02:10:11;101343.97;;;6.60;nan
2401;BME280;1211;43.200;27.914;2023-02-24T02:12:39;101296.22;;;6.43;nan
2401;BME280;1211;43.200;27.914;2023-02-24T02:15:09;101240.13;;;6.11;nan
2401;BME280;1211;43.200;27.914;2023-02-24T02:17:38;101302.50;;;6.43;nan
2401;BME280;1211;43.200;27.914;2023-02-24T02:20:24;101372.78;;;6.82;nan
2401;BME280;1211;43.200;27.914;2023-02-24T02:25:42;101488.47;;;7.36;nan
2401;BME280;1211;43.200;27.914;2023-02-24T02:28:18;101430.44;;;7.29;nan
2401;BME280;1211;43.200;27.914;2023-02-24T02:31:03;101468.59;;;7.50;nan
2401;BME280;1211;43.200;27.914;2023-02-24T02:33:54;101470.63;;;7.39;nan
2401;BME280;1211;43.200;27.914;2023-02-24T02:36:30;101408.69;;;7.09;nan
2401;BME280;1211;43.200;27.914;2023-02-24T02:39:00;101255.97;;;6.14;nan
2401;BME280;1211;43.200;27.914;2023-02-24T02:41:32;101473.41;;;7.63;nan
2401;BME280;1211;43.200;27.914;2023-02-24T02:44:02;101541.25;;;8.05;nan
2401;BME280;1211;43.200;27.914;2023-02-24T02:46:33;101552.72;;;8.12;nan
2401;BME280;1211;43.200;27.914;2023-02-24T02:49:08;101584.22;;;8.14;nan
2401;BME280;1211;43.200;27.914;2023-02-24T02:51:38;101484.59;;;7.66;nan
2401;BME280;1211;43.200;27.914;2023-02-24T02:54:07;101517.16;;;7.73;nan
2401;BME280;1211;43.200;27.914;2023-02-24T02:56:39;101472.25;;;7.69;nan
2401;BME280;1211;43.200;27.914;2023-02-24T02:59:08;101542.69;;;7.97;nan
2401;BME280;1211;43.200;27.914;2023-02-24T03:01:39;101571.50;;;8.23;nan
2401;BME280;1211;43.200;27.914;2023-02-24T03:04:10;101467.09;;;7.62;nan
2401;BME280;1211;43.200;27.914;2023-02-24T03:06:42;101409.13;;;7.21;nan
2401;BME280;1211;43.200;27.914;2023-02-24T03:09:10;101465.63;;;7.46;nan
2401;BME280;1211;43.200;27.914;2023-02-24T03:11:40;101453.56;;;7.47;nan
2401;BME280;1211;43.200;27.914;2023-02-24T03:14:07;101332.31;;;6.79;nan
2401;BME280;1211;43.200;27.914;2023-02-24T03:16:37;101431.75;;;7.32;nan
2401;BME280;1211;43.200;27.914;2023-02-24T03:19:05;101267.50;;;6.40;nan
2401;BME280;1211;43.200;27.914;2023-02-24T03:21:35;101320.69;;;6.92;nan
2401;BME280;1211;43.200;27.914;2023-02-24T03:24:04;101488.84;;;7.82;nan
2401;BME280;1211;43.200;27.914;2023-02-24T03:26:32;101493.25;;;8.02;nan
2401;BME280;1211;43.200;27.914;2023-02-24T03:29:04;101466.91;;;7.82;nan
2401;BME280;1211;43.200;27.914;2023-02-24T03:31:33;101492.34;;;7.88;nan
2401;BME280;1211;43.200;27.914;2023-02-24T03:34:05;101423.22;;;7.38;nan
2401;BME280;1211;43.200;27.914;2023-02-24T03:36:35;101452.41;;;7.53;nan
2401;BME280;1211;43.200;27.914;2023-02-24T03:39:02;101422.66;;;7.41;nan
2401;BME280;1211;43.200;27.914;2023-02-24T03:41:36;101410.72;;;7.27;nan
2401;BME280;1211;43.200;27.914;2023-02-24T03:44:05;101360.25;;;7.04;nan
2401;BME280;1211;43.200;27.914;2023-02-24T03:46:33;101486.50;;;7.95;nan
2401;BME280;1211;43.200;27.914;2023-02-24T03:49:04;101525.78;;;8.14;nan
2401;BME280;1211;43.200;27.914;2023-02-24T03:51:34;101514.88;;;8.09;nan
2401;BME280;1211;43.200;27.914;2023-02-24T03:54:05;101537.34;;;8.11;nan
2401;BME280;1211;43.200;27.914;2023-02-24T03:56:43;101489.63;;;8.07;nan
2401;BME280;1211;43.200;27.914;2023-02-24T03:59:13;101421.53;;;7.42;nan
2401;BME280;1211;43.200;27.914;2023-02-24T04:01:46;101431.75;;;7.61;nan
2401;BME280;1211;43.200;27.914;2023-02-24T04:04:17;101465.06;;;7.73;nan
2401;BME280;1211;43.200;27.914;2023-02-24T04:06:49;101418.16;;;7.51;nan
2401;BME280;1211;43.200;27.914;2023-02-24T04:09:21;101403.03;;;7.29;nan
2401;BME280;1211;43.200;27.914;2023-02-24T04:11:51;101408.41;;;7.39;nan
2401;BME280;1211;43.200;27.914;2023-02-24T04:14:21;101409.00;;;7.36;nan
2401;BME280;1211;43.200;27.914;2023-02-24T04:16:51;101360.91;;;7.20;nan
2401;BME280;1211;43.200;27.914;2023-02-24T04:19:24;101413.22;;;7.53;nan
2401;BME280;1211;43.200;27.914;2023-02-24T04:21:53;101379.91;;;7.40;nan
2401;BME280;1211;43.200;27.914;2023-02-24T04:24:24;101465.00;;;7.78;nan
2401;BME280;1211;43.200;27.914;2023-02-24T04:26:52;101533.59;;;8.25;nan
2401;BME280;1211;43.200;27.914;2023-02-24T04:29:23;101522.06;;;8.28;nan
2401;BME280;1211;43.200;27.914;2023-02-24T04:31:52;101534.03;;;8.38;nan
2401;BME280;1211;43.200;27.914;2023-02-24T04:34:20;101513.81;;;8.28;nan
2401;BME280;1211;43.200;27.914;2023-02-24T04:36:47;101531.34;;;8.33;nan
2401;BME280;1211;43.200;27.914;2023-02-24T04:39:15;101505.56;;;8.34;nan
2401;BME280;1211;43.200;27.914;2023-02-24T04:41:44;101476.09;;;8.15;nan
2401;BME280;1211;43.200;27.914;2023-02-24T04:44:13;101330.28;;;7.18;nan
2401;BME280;1211;43.200;27.914;2023-02-24T04:46:41;101386.28;;;7.60;nan
2401;BME280;1211;43.200;27.914;2023-02-24T04:49:08;101391.03;;;7.73;nan
2401;BME280;1211;43.200;27.914;2023-02-24T04:51:35;101279.00;;;7.00;nan
2401;BME280;1211;43.200;27.914;2023-02-24T04:54:02;101515.44;;;8.35;nan
2401;BME280;1211;43.200;27.914;2023-02-24T04:56:29;101518.03;;;8.21;nan
2401;BME280;1211;43.200;27.914;2023-02-24T04:58:57;101512.69;;;8.29;nan
2401;BME280;1211;43.200;27.914;2023-02-24T05:01:24;101495.63;;;8.38;nan
2401;BME280;1211;43.200;27.914;2023-02-24T05:03:50;101520.78;;;8.45;nan
2401;BME280;1211;43.200;27.914;2023-02-24T05:06:17;101513.00;;;8.52;nan
2401;BME280;1211;43.200;27.914;2023-02-24T05:08:45;101511.84;;;8.58;nan
2401;BME280;1211;43.200;27.914;2023-02-24T05:11:12;101248.88;;;7.00;nan
2401;BME280;1211;43.200;27.914;2023-02-24T05:13:40;101475.16;;;8.49;nan
2401;BME280;1211;43.200;27.914;2023-02-24T05:16:17;101497.88;;;8.54;nan
2401;BME280;1211;43.200;27.914;2023-02-24T05:18:44;101513.97;;;8.61;nan
2401;BME280;1211;43.200;27.914;2023-02-24T05:21:12;101515.25;;;8.68;nan
2401;BME280;1211;43.200;27.914;2023-02-24T05:23:56;101499.06;;;8.67;nan
2401;BME280;1211;43.200;27.914;2023-02-24T05:26:23;101521.25;;;8.89;nan
2401;BME280;1211;43.200;27.914;2023-02-24T05:28:51;101491.50;;;8.96;nan
2401;BME280;1211;43.200;27.914;2023-02-24T05:31:21;101495.81;;;9.02;nan
2401;BME280;1211;43.200;27.914;2023-02-24T05:33:50;101496.66;;;9.17;nan
2401;BME280;1211;43.200;27.914;2023-02-24T05:36:18;101506.81;;;9.35;nan
2401;BME280;1211;43.200;27.914;2023-02-24T05:38:46;101518.84;;;9.71;nan
2401;BME280;1211;43.200;27.914;2023-02-24T05:41:15;101531.00;;;9.98;nan
2401;BME280;1211;43.200;27.914;2023-02-24T05:43:43;101521.22;;;10.05;nan
2401;BME280;1211;43.200;27.914;2023-02-24T05:46:12;101405.00;;;9.40;nan
2401;BME280;1211;43.200;27.914;2023-02-24T05:48:41;101435.91;;;9.91;nan
2401;BME280;1211;43.200;27.914;2023-02-24T05:51:08;101475.69;;;10.40;nan
2401;BME280;1211;43.200;27.914;2023-02-24T05:53:36;101437.56;;;10.20;nan
2401;BME280;1211;43.200;27.914;2023-02-24T05:56:05;101429.81;;;10.36;nan
2401;BME280;1211;43.200;27.914;2023-02-24T05:58:32;101362.75;;;10.18;nan
2401;BME280;1211;43.200;27.914;2023-02-24T06:01:00;101341.19;;;10.56;nan
2401;BME280;1211;43.200;27.914;2023-02-24T06:03:34;101413.84;;;10.82;nan
2401;BME280;1211;43.200;27.914;2023-02-24T06:06:02;101399.72;;;10.61;nan
2401;BME280;1211;43.200;27.914;2023-02-24T06:08:33;101296.69;;;10.40;nan
2401;BME280;1211;43.200;27.914;2023-02-24T06:11:06;101340.25;;;10.38;nan
2401;BME280;1211;43.200;27.914;2023-02-24T06:13:34;101366.69;;;10.61;nan
2401;BME280;1211;43.200;27.914;2023-02-24T06:16:01;101362.38;;;10.69;nan
2401;BME280;1211;43.200;27.914;2023-02-24T06:18:28;101378.84;;;10.11;nan
2401;BME280;1211;43.200;27.914;2023-02-24T06:20:55;101414.31;;;9.99;nan
2401;BME280;1211;43.200;27.914;2023-02-24T06:23:23;101432.53;;;10.71;nan
2401;BME280;1211;43.200;27.914;2023-02-24T06:25:50;101413.00;;;9.96;nan
2401;BME280;1211;43.200;27.914;2023-02-24T06:28:22;101379.25;;;9.63;nan
2401;BME280;1211;43.200;27.914;2023-02-24T06:30:48;101494.25;;;10.21;nan
2401;BME280;1211;43.200;27.914;2023-02-24T06:33:15;101472.94;;;10.26;nan
2401;BME280;1211;43.200;27.914;2023-02-24T06:35:42;101422.38;;;9.81;nan
2401;BME280;1211;43.200;27.914;2023-02-24T06:38:09;101341.19;;;9.43;nan
2401;BME280;1211;43.200;27.914;2023-02-24T06:40:37;101465.59;;;10.22;nan
2401;BME280;1211;43.200;27.914;2023-02-24T06:43:04;101216.78;;;8.96;nan
2401;BME280;1211;43.200;27.914;2023-02-24T06:45:31;101419.72;;;9.90;nan
2401;BME280;1211;43.200;27.914;2023-02-24T06:47:58;101445.50;;;10.08;nan
2401;BME280;1211;43.200;27.914;2023-02-24T06:50:24;101433.69;;;10.70;nan
2401;BME280;1211;43.200;27.914;2023-02-24T06:52:53;101437.06;;;11.12;nan
2401;BME280;1211;43.200;27.914;2023-02-24T06:55:22;101497.97;;;11.69;nan
2401;BME280;1211;43.200;27.914;2023-02-24T06:57:54;101507.84;;;11.39;nan
2401;BME280;1211;43.200;27.914;2023-02-24T07:00:26;101516.41;;;11.60;nan
2401;BME280;1211;43.200;27.914;2023-02-24T07:03:02;101498.91;;;11.64;nan
2401;BME280;1211;43.200;27.914;2023-02-24T07:05:39;101497.41;;;11.36;nan
2401;BME280;1211;43.200;27.914;2023-02-24T07:08:06;101510.53;;;11.30;nan
2401;BME280;1211;43.200;27.914;2023-02-24T07:10:33;101492.16;;;11.03;nan
2401;BME280;1211;43.200;27.914;2023-02-24T07:13:02;101487.63;;;11.07;nan
2401;BME280;1211;43.200;27.914;2023-02-24T07:15:33;101487.19;;;10.92;nan
2401;BME280;1211;43.200;27.914;2023-02-24T07:18:01;101492.47;;;11.02;nan
2401;BME280;1211;43.200;27.914;2023-02-24T07:20:28;101485.09;;;11.11;nan
2401;BME280;1211;43.200;27.914;2023-02-24T07:22:55;101488.06;;;11.23;nan
2401;BME280;1211;43.200;27.914;2023-02-24T07:25:22;101492.72;;;11.14;nan
2401;BME280;1211;43.200;27.914;2023-02-24T07:27:57;101485.31;;;11.01;nan
2401;BME280;1211;43.200;27.914;2023-02-24T07:30:28;101500.25;;;11.44;nan
2401;BME280;1211;43.200;27.914;2023-02-24T07:32:57;101500.81;;;12.17;nan
2401;BME280;1211;43.200;27.914;2023-02-24T07:35:24;101475.72;;;12.53;nan
2401;BME280;1211;43.200;27.914;2023-02-24T07:37:51;101480.03;;;12.28;nan
2401;BME280;1211;43.200;27.914;2023-02-24T07:40:19;101288.56;;;11.19;nan
2401;BME280;1211;43.200;27.914;2023-02-24T07:42:47;101430.50;;;11.52;nan
2401;BME280;1211;43.200;27.914;2023-02-24T07:45:14;101447.94;;;11.62;nan
2401;BME280;1211;43.200;27.914;2023-02-24T07:47:42;101477.16;;;11.40;nan
2401;BME280;1211;43.200;27.914;2023-02-24T07:50:10;101490.88;;;11.76;nan
2401;BME280;1211;43.200;27.914;2023-02-24T07:52:38;101463.41;;;11.71;nan
2401;BME280;1211;43.200;27.914;2023-02-24T07:55:06;101472.50;;;12.03;nan
2401;BME280;1211;43.200;27.914;2023-02-24T07:57:33;101482.59;;;12.07;nan
2401;BME280;1211;43.200;27.914;2023-02-24T08:00:02;101476.25;;;12.15;nan
2401;BME280;1211;43.200;27.914;2023-02-24T08:02:42;101467.50;;;12.13;nan
2401;BME280;1211;43.200;27.914;2023-02-24T08:05:09;101472.16;;;12.44;nan
2401;BME280;1211;43.200;27.914;2023-02-24T08:07:36;101474.25;;;12.47;nan
2401;BME280;1211;43.200;27.914;2023-02-24T08:10:05;101470.56;;;12.77;nan
2401;BME280;1211;43.200;27.914;2023-02-24T08:12:48;101470.97;;;12.45;nan
2401;BME280;1211;43.200;27.914;2023-02-24T08:15:18;101449.72;;;12.62;nan
2401;BME280;1211;43.200;27.914;2023-02-24T08:17:50;101457.53;;;12.69;nan
2401;BME280;1211;43.200;27.914;2023-02-24T08:20:17;101451.84;;;12.91;nan
2401;BME280;1211;43.200;27.914;2023-02-24T08:22:50;101458.03;;;13.05;nan
2401;BME280;1211;43.200;27.914;2023-02-24T08:25:17;101452.34;;;13.28;nan
2401;BME280;1211;43.200;27.914;2023-02-24T08:27:47;101465.06;;;13.84;nan
2401;BME280;1211;43.200;27.914;2023-02-24T08:30:20;101461.38;;;13.63;nan
2401;BME280;1211;43.200;27.914;2023-02-24T08:32:53;100276.81;;;5.66;nan
2401;BME280;1211;43.200;27.914;2023-02-24T08:35:24;101444.84;;;13.28;nan
2401;BME280;1211;43.200;27.914;2023-02-24T08:37:56;101425.66;;;12.80;nan
2401;BME280;1211;43.200;27.914;2023-02-24T08:40:25;101429.84;;;12.34;nan
2401;BME280;1211;43.200;27.914;2023-02-24T08:43:04;101440.31;;;12.55;nan
2401;BME280;1211;43.200;27.914;2023-02-24T08:45:40;101429.25;;;12.55;nan
2401;BME280;1211;43.200;27.914;2023-02-24T08:48:10;101418.53;;;12.70;nan
2401;BME280;1211;43.200;27.914;2023-02-24T08:50:51;101429.41;;;13.27;nan
2401;BME280;1211;43.200;27.914;2023-02-24T08:53:17;101419.97;;;13.28;nan
2401;BME280;1211;43.200;27.914;2023-02-24T08:55:44;101419.31;;;12.97;nan
2401;BME280;1211;43.200;27.914;2023-02-24T08:58:16;101406.81;;;12.99;nan
2401;BME280;1211;43.200;27.914;2023-02-24T09:00:43;101434.56;;;13.46;nan
2401;BME280;1211;43.200;27.914;2023-02-24T09:03:16;101398.28;;;13.47;nan
2401;BME280;1211;43.200;27.914;2023-02-24T09:05:58;101442.16;;;14.04;nan
2401;BME280;1211;43.200;27.914;2023-02-24T09:08:26;101426.00;;;14.06;nan
2401;BME280;1211;43.200;27.914;2023-02-24T09:10:57;101442.72;;;14.18;nan
2401;BME280;1211;43.200;27.914;2023-02-24T09:13:24;101436.34;;;13.97;nan
2401;BME280;1211;43.200;27.914;2023-02-24T09:15:57;101418.69;;;13.72;nan
2401;BME280;1211;43.200;27.914;2023-02-24T09:18:25;101428.25;;;13.02;nan
2401;BME280;1211;43.200;27.914;2023-02-24T09:20:54;101408.28;;;12.88;nan
2401;BME280;1211;43.200;27.914;2023-02-24T09:23:40;101407.97;;;12.90;nan
2401;BME280;1211;43.200;27.914;2023-02-24T09:26:10;101414.13;;;12.95;nan
2401;BME280;1211;43.200;27.914;2023-02-24T09:28:38;101409.41;;;12.87;nan
2401;BME280;1211;43.200;27.914;2023-02-24T09:31:13;101394.09;;;13.15;nan
2401;BME280;1211;43.200;27.914;2023-02-24T09:33:42;101409.38;;;13.30;nan
2401;BME280;1211;43.200;27.914;2023-02-24T09:36:15;101408.22;;;13.31;nan
2401;BME280;1211;43.200;27.914;2023-02-24T09:38:52;101380.88;;;13.38;nan
2401;BME280;1211;43.200;27.914;2023-02-24T09:41:40;101382.22;;;13.06;nan
2401;BME280;1211;43.200;27.914;2023-02-24T09:44:25;101396.06;;;13.24;nan
2401;BME280;1211;43.200;27.914;2023-02-24T09:46:53;101388.84;;;13.40;nan
2401;BME280;1211;43.200;27.914;2023-02-24T09:49:25;101400.28;;;13.30;nan
2401;BME280;1211;43.200;27.914;2023-02-24T09:52:04;101386.63;;;12.90;nan
2401;BME280;1211;43.200;27.914;2023-02-24T09:54:33;101387.63;;;12.51;nan
2401;BME280;1211;43.200;27.914;2023-02-24T09:57:02;101384.53;;;12.96;nan
2401;BME280;1211;43.200;27.914;2023-02-24T09:59:35;101366.59;;;13.28;nan
2401;BME280;1211;43.200;27.914;2023-02-24T10:02:09;101384.88;;;13.58;nan
2401;BME280;1211;43.200;27.914;2023-02-24T10:04:56;101364.88;;;13.52;nan
2401;BME280;1211;43.200;27.914;2023-02-24T10:07:32;101358.16;;;13.62;nan
2401;BME280;1211;43.200;27.914;2023-02-24T10:10:03;101349.72;;;13.50;nan
2401;BME280;1211;43.200;27.914;2023-02-24T10:12:43;101342.06;;;13.85;nan
2401;BME280;1211;43.200;27.914;2023-02-24T10:15:13;101346.19;;;14.70;nan
2401;BME280;1211;43.200;27.914;2023-02-24T10:18:16;101350.16;;;14.81;nan
2401;BME280;1211;43.200;27.914;2023-02-24T10:20:52;101340.09;;;15.55;nan
2401;BME280;1211;43.200;27.914;2023-02-24T10:23:23;101335.31;;;15.92;nan
2401;BME280;1211;43.200;27.914;2023-02-24T10:25:59;101358.00;;;15.57;nan
2401;BME280;1211;43.200;27.914;2023-02-24T10:28:28;101320.28;;;15.69;nan
2401;BME280;1211;43.200;27.914;2023-02-24T10:31:02;101326.97;;;15.92;nan
2401;BME280;1211;43.200;27.914;2023-02-24T10:33:48;101303.34;;;15.49;nan
2401;BME280;1211;43.200;27.914;2023-02-24T10:36:23;101307.25;;;16.21;nan
2401;BME280;1211;43.200;27.914;2023-02-24T10:39:00;101327.78;;;15.92;nan
2401;BME280;1211;43.200;27.914;2023-02-24T10:41:39;101307.47;;;16.84;nan
2401;BME280;1211;43.200;27.914;2023-02-24T10:44:10;101287.59;;;16.98;nan
2401;BME280;1211;43.200;27.914;2023-02-24T10:46:37;101306.78;;;15.10;nan
2401;BME280;1211;43.200;27.914;2023-02-24T10:49:07;101295.56;;;15.06;nan
2401;BME280;1211;43.200;27.914;2023-02-24T10:51:42;101291.16;;;14.60;nan
2401;BME280;1211;43.200;27.914;2023-02-24T10:54:13;101287.66;;;14.10;nan
2401;BME280;1211;43.200;27.914;2023-02-24T10:57:10;101265.91;;;14.20;nan
2401;BME280;1211;43.200;27.914;2023-02-24T10:59:51;101244.59;;;14.33;nan
2401;BME280;1211;43.200;27.914;2023-02-24T11:02:48;101274.63;;;15.09;nan
2401;BME280;1211;43.200;27.914;2023-02-24T11:05:37;101256.81;;;14.86;nan
2401;BME280;1211;43.200;27.914;2023-02-24T11:08:12;101241.75;;;14.62;nan
2401;BME280;1211;43.200;27.914;2023-02-24T11:11:00;101239.28;;;14.28;nan
2401;BME280;1211;43.200;27.914;2023-02-24T11:13:31;101230.53;;;13.26;nan
2401;BME280;1211;43.200;27.914;2023-02-24T11:16:15;101222.44;;;12.74;nan
2401;BME280;1211;43.200;27.914;2023-02-24T11:19:10;101214.28;;;11.88;nan
2401;BME280;1211;43.200;27.914;2023-02-24T11:21:37;101217.19;;;11.83;nan
2401;BME280;1211;43.200;27.914;2023-02-24T11:24:06;101219.25;;;11.60;nan
2401;BME280;1211;43.200;27.914;2023-02-24T11:26:36;101224.44;;;11.44;nan
2401;BME280;1211;43.200;27.914;2023-02-24T11:29:22;101067.97;;;10.85;nan
2401;BME280;1211;43.200;27.914;2023-02-24T11:31:55;101219.22;;;11.34;nan
2401;BME280;1211;43.200;27.914;2023-02-24T11:34:26;101203.66;;;11.38;nan
2401;BME280;1211;43.200;27.914;2023-02-24T11:37:00;101217.75;;;11.37;nan
2401;BME280;1211;43.200;27.914;2023-02-24T11:39:42;101190.69;;;11.56;nan
2401;BME280;1211;43.200;27.914;2023-02-24T11:42:12;101165.38;;;11.71;nan
2401;BME280;1211;43.200;27.914;2023-02-24T11:44:43;101184.91;;;11.92;nan
2401;BME280;1211;43.200;27.914;2023-02-24T11:47:12;101183.28;;;11.91;nan
2401;BME280;1211;43.200;27.914;2023-02-24T11:49:41;101182.78;;;11.89;nan
2401;BME280;1211;43.200;27.914;2023-02-24T11:52:11;101187.94;;;12.16;nan
2401;BME280;1211;43.200;27.914;2023-02-24T11:54:42;101171.66;;;12.49;nan
2401;BME280;1211;43.200;27.914;2023-02-24T11:57:11;101163.88;;;12.80;nan
2401;BME280;1211;43.200;27.914;2023-02-24T11:59:42;101159.50;;;13.17;nan
2401;BME280;1211;43.200;27.914;2023-02-24T12:02:14;101166.56;;;13.36;nan
2401;BME280;1211;43.200;27.914;2023-02-24T12:04:43;101130.38;;;12.82;nan
2401;BME280;1211;43.200;27.914;2023-02-24T12:07:14;101179.50;;;12.76;nan
2401;BME280;1211;43.200;27.914;2023-02-24T12:09:47;101161.88;;;12.60;nan
2401;BME280;1211;43.200;27.914;2023-02-24T12:12:16;101166.59;;;13.48;nan
2401;BME280;1211;43.200;27.914;2023-02-24T12:14:46;101165.47;;;13.90;nan
2401;BME280;1211;43.200;27.914;2023-02-24T12:17:16;101170.06;;;13.86;nan
2401;BME280;1211;43.200;27.914;2023-02-24T12:19:57;101146.00;;;13.99;nan
2401;BME280;1211;43.200;27.914;2023-02-24T12:22:27;101129.69;;;13.44;nan
2401;BME280;1211;43.200;27.914;2023-02-24T12:24:57;100156.34;;;7.31;nan
2401;BME280;1211;43.200;27.914;2023-02-24T12:27:27;100862.28;;;11.52;nan
2401;BME280;1211;43.200;27.914;2023-02-24T12:30:03;101127.56;;;12.91;nan
2401;BME280;1211;43.200;27.914;2023-02-24T12:32:37;101048.47;;;12.77;nan
2401;BME280;1211;43.200;27.914;2023-02-24T12:35:08;101040.94;;;12.57;nan
2401;BME280;1211;43.200;27.914;2023-02-24T12:37:47;101132.13;;;12.95;nan
2401;BME280;1211;43.200;27.914;2023-02-24T12:40:23;101125.38;;;13.34;nan
2401;BME280;1211;43.200;27.914;2023-02-24T12:42:56;101121.81;;;13.04;nan
2401;BME280;1211;43.200;27.914;2023-02-24T12:45:30;101112.56;;;13.00;nan
2401;BME280;1211;43.200;27.914;2023-02-24T12:48:00;101117.91;;;13.35;nan
2401;BME280;1211;43.200;27.914;2023-02-24T12:50:32;101107.78;;;13.18;nan
2401;BME280;1211;43.200;27.914;2023-02-24T12:53:05;101103.97;;;12.64;nan
2401;BME280;1211;43.200;27.914;2023-02-24T12:55:38;101103.63;;;12.27;nan
2401;BME280;1211;43.200;27.914;2023-02-24T12:58:07;101116.91;;;12.43;nan
2401;BME280;1211;43.200;27.914;2023-02-24T13:00:39;101110.59;;;12.71;nan
2401;BME280;1211;43.200;27.914;2023-02-24T13:03:15;101076.31;;;12.34;nan
2401;BME280;1211;43.200;27.914;2023-02-24T13:05:47;101093.25;;;12.62;nan
2401;BME280;1211;43.200;27.914;2023-02-24T13:08:20;101114.22;;;12.63;nan
2401;BME280;1211;43.200;27.914;2023-02-24T13:10:53;101099.72;;;12.28;nan
2401;BME280;1211;43.200;27.914;2023-02-24T13:13:24;101096.72;;;12.51;nan
2401;BME280;1211;43.200;27.914;2023-02-24T13:15:53;101100.63;;;11.94;nan
2401;BME280;1211;43.200;27.914;2023-02-24T13:18:24;100556.75;;;9.30;nan
2401;BME280;1211;43.200;27.914;2023-02-24T13:21:00;100737.59;;;10.45;nan
2401;BME280;1211;43.200;27.914;2023-02-24T13:23:28;100744.34;;;10.82;nan
2401;BME280;1211;43.200;27.914;2023-02-24T13:25:57;100782.44;;;10.54;nan
2401;BME280;1211;43.200;27.914;2023-02-24T13:28:24;100929.09;;;11.67;nan
2401;BME280;1211;43.200;27.914;2023-02-24T13:30:56;100996.59;;;12.54;nan
2401;BME280;1211;43.200;27.914;2023-02-24T13:33:26;100947.38;;;11.88;nan
2401;BME280;1211;43.200;27.914;2023-02-24T13:36:04;101030.03;;;11.85;nan
2401;BME280;1211;43.200;27.914;2023-02-24T13:38:33;101049.81;;;11.87;nan
2401;BME280;1211;43.200;27.914;2023-02-24T13:41:07;101070.94;;;11.83;nan
2401;BME280;1211;43.200;27.914;2023-02-24T13:43:33;101068.31;;;11.86;nan
2401;BME280;1211;43.200;27.914;2023-02-24T13:46:01;100886.28;;;10.97;nan
2401;BME280;1211;43.200;27.914;2023-02-24T13:54:06;101025.16;;;11.65;nan
2401;BME280;1211;43.200;27.914;2023-02-24T13:56:38;101066.31;;;12.04;nan